createdAt,value
2023-04-28T00:00:27.176Z,5.60
2023-04-28T00:03:15.116Z,5.13
2023-04-28T00:06:03.396Z,4.67
2023-04-28T00:08:50.803Z,4.57
2023-04-28T00:11:39.583Z,5.00
2023-04-28T00:14:27.421Z,4.50
2023-04-28T00:17:15.121Z,4.53
2023-04-28T00:20:02.324Z,4.67
2023-04-28T00:22:50.580Z,4.13
2023-04-28T00:25:37.995Z,3.80
2023-04-28T00:28:34.113Z,3.63
2023-04-28T00:31:22.891Z,3.77
2023-04-28T00:34:14.311Z,4.00
2023-04-28T00:37:01.837Z,3.90
2023-04-28T00:39:49.177Z,4.20
2023-04-28T00:42:36.722Z,3.63
2023-04-28T00:45:25.821Z,3.70
2023-04-28T00:48:15.146Z,4.07
2023-04-28T00:51:02.843Z,3.63
2023-04-28T00:53:50.230Z,3.53
2023-04-28T00:56:38.000Z,3.47
2023-04-28T00:59:25.508Z,3.57
2023-04-28T01:02:17.582Z,3.20
2023-04-28T01:05:05.667Z,3.80
2023-04-28T01:07:54.577Z,3.37
2023-04-28T01:10:46.190Z,3.50
2023-04-28T01:13:45.359Z,3.23
2023-04-28T01:16:33.560Z,4.00
2023-04-28T01:19:23.794Z,4.10
2023-04-28T01:22:15.267Z,3.60
2023-04-28T01:25:05.049Z,3.60
2023-04-28T01:27:53.264Z,3.27
2023-04-28T01:30:41.046Z,3.73
2023-04-28T01:33:28.764Z,3.77
2023-04-28T01:36:16.251Z,3.63
2023-04-28T01:39:04.824Z,4.40
2023-04-28T01:41:54.829Z,3.87
2023-04-28T01:44:42.619Z,3.80
2023-04-28T01:47:31.690Z,3.60
2023-04-28T01:50:19.177Z,3.63
2023-04-28T01:53:06.857Z,4.10
2023-04-28T01:55:55.287Z,4.23
2023-04-28T01:58:44.468Z,4.23
2023-04-28T02:01:33.224Z,4.30
2023-04-28T02:04:21.212Z,4.40
2023-04-28T02:07:09.129Z,4.67
2023-04-28T02:09:56.632Z,4.00
2023-04-28T02:12:44.118Z,3.90
2023-04-28T02:15:32.715Z,3.93
2023-04-28T02:18:20.214Z,4.27
2023-04-28T02:21:11.997Z,3.90
2023-04-28T02:23:59.581Z,3.70
2023-04-28T02:26:47.275Z,3.67
2023-04-28T02:29:34.627Z,4.07
2023-04-28T02:32:23.297Z,3.90
2023-04-28T02:35:12.343Z,4.40
2023-04-28T02:37:59.590Z,3.90
2023-04-28T02:40:46.967Z,3.90
2023-04-28T02:43:34.529Z,3.77
2023-04-28T02:46:22.305Z,3.93
2023-04-28T02:49:11.582Z,3.90
2023-04-28T02:51:59.257Z,3.93
2023-04-28T02:54:48.819Z,3.60
2023-04-28T02:57:37.474Z,3.30
2023-04-28T03:00:24.835Z,4.33
2023-04-28T03:03:12.987Z,3.43
2023-04-28T03:06:01.900Z,3.53
2023-04-28T03:08:49.715Z,3.70
2023-04-28T03:11:37.298Z,3.40
2023-04-28T03:14:25.183Z,3.60
2023-04-28T03:17:14.254Z,3.20
2023-04-28T03:20:01.753Z,3.67
2023-04-28T03:22:51.658Z,3.87
2023-04-28T03:25:39.291Z,3.13
2023-04-28T03:28:26.648Z,3.23
2023-04-28T03:31:13.850Z,3.43
2023-04-28T03:34:01.415Z,3.60
2023-04-28T03:36:48.856Z,3.30
2023-04-28T03:39:45.752Z,3.90
2023-04-28T03:42:33.332Z,3.70
2023-04-28T03:45:23.937Z,3.63
2023-04-28T03:48:11.288Z,3.80
2023-04-28T03:50:59.105Z,3.30
2023-04-28T03:53:46.717Z,4.27
2023-04-28T03:56:36.239Z,3.17
2023-04-28T03:59:24.941Z,3.90
2023-04-28T04:02:12.238Z,3.33
2023-04-28T04:05:00.324Z,3.30
2023-04-28T04:07:48.025Z,3.77
2023-04-28T04:10:35.293Z,3.60
2023-04-28T04:13:24.128Z,3.50
2023-04-28T04:16:11.915Z,3.63
2023-04-28T04:18:59.260Z,3.90
2023-04-28T04:21:56.571Z,4.03
2023-04-28T04:24:44.178Z,3.67
2023-04-28T04:27:31.539Z,3.70
2023-04-28T04:30:20.233Z,3.70
2023-04-28T04:33:08.256Z,4.23
2023-04-28T04:35:56.587Z,3.63
2023-04-28T04:38:43.850Z,3.73
2023-04-28T04:41:36.722Z,3.40
2023-04-28T04:44:47.664Z,3.60
2023-04-28T04:47:49.721Z,3.63
2023-04-28T04:50:38.326Z,3.30
2023-04-28T04:53:26.372Z,4.73
2023-04-28T04:56:16.096Z,4.10
2023-04-28T04:59:04.505Z,3.83
2023-04-28T05:02:02.944Z,3.80
2023-04-28T05:04:51.734Z,4.20
2023-04-28T05:07:39.943Z,3.77
2023-04-28T05:10:27.452Z,3.80
2023-04-28T05:13:15.066Z,3.80
2023-04-28T05:16:02.728Z,3.70
2023-04-28T05:19:16.441Z,3.53
2023-04-28T05:22:05.755Z,4.30
2023-04-28T05:24:53.180Z,3.60
2023-04-28T05:27:41.124Z,3.73
2023-04-28T05:30:30.460Z,3.60
2023-04-28T05:33:17.785Z,3.83
2023-04-28T05:36:05.404Z,3.20
2023-04-28T05:38:54.500Z,2.93
2023-04-28T05:41:42.061Z,3.27
2023-04-28T05:44:29.352Z,3.30
2023-04-28T05:47:18.744Z,2.87
2023-04-28T05:50:06.851Z,2.90
2023-04-28T05:52:54.837Z,2.63
2023-04-28T05:55:43.854Z,2.87
2023-04-28T05:58:31.641Z,2.60
2023-04-28T06:01:19.465Z,2.73
2023-04-28T06:06:54.582Z,2.50
2023-04-28T06:09:42.082Z,2.83
2023-04-28T06:12:31.100Z,2.70
2023-04-28T06:15:18.700Z,2.78
2023-04-28T06:18:07.396Z,2.60
2023-04-28T06:20:54.975Z,2.63
2023-04-28T06:23:42.482Z,2.93
2023-04-28T06:26:29.714Z,2.78
2023-04-28T06:29:20.478Z,3.00
2023-04-28T06:32:08.319Z,2.92
2023-04-28T06:34:58.306Z,2.67
2023-04-28T06:37:47.366Z,3.00
2023-04-28T06:40:35.771Z,2.65
2023-04-28T06:43:25.829Z,3.30
2023-04-28T06:46:26.465Z,3.20
2023-04-28T06:49:14.121Z,2.83
2023-04-28T06:52:01.347Z,3.13
2023-04-28T06:54:51.697Z,3.10
2023-04-28T06:57:39.394Z,3.40
2023-04-28T07:00:26.892Z,2.97
2023-04-28T07:03:16.001Z,3.03
2023-04-28T07:06:04.093Z,3.15
2023-04-28T07:08:51.805Z,3.20
2023-04-28T07:11:39.410Z,3.33
2023-04-28T07:14:26.913Z,3.05
2023-04-28T07:17:14.069Z,3.13
2023-04-28T07:20:04.344Z,2.83
2023-04-28T07:22:52.017Z,2.65
2023-04-28T07:25:40.080Z,2.70
2023-04-28T07:28:27.612Z,2.95
2023-04-28T07:31:15.363Z,2.50
2023-04-28T07:34:03.409Z,2.97
2023-04-28T07:36:52.226Z,2.78
2023-04-28T07:39:40.594Z,2.95
2023-04-28T07:42:28.356Z,2.42
2023-04-28T07:45:16.864Z,3.08
2023-04-28T07:48:04.875Z,2.92
2023-04-28T07:50:52.534Z,2.42
2023-04-28T07:53:41.453Z,3.00
2023-04-28T07:56:29.268Z,2.35
2023-04-28T07:59:16.872Z,2.55
2023-04-28T08:02:04.347Z,2.90
2023-04-28T08:04:52.345Z,3.03
2023-04-28T08:07:40.279Z,2.90
2023-04-28T08:10:30.364Z,2.70
2023-04-28T08:13:18.171Z,2.40
2023-04-28T08:16:06.055Z,2.97
2023-04-28T08:18:54.039Z,2.55
2023-04-28T08:21:41.476Z,2.80
2023-04-28T08:24:30.281Z,2.65
2023-04-28T08:27:19.038Z,3.00
2023-04-28T08:30:07.647Z,2.47
2023-04-28T08:32:55.517Z,2.72
2023-04-28T08:35:43.268Z,2.63
2023-04-28T08:38:30.659Z,2.65
2023-04-28T08:41:19.501Z,2.90
2023-04-28T08:44:10.454Z,3.28
2023-04-28T08:46:58.918Z,3.40
2023-04-28T08:49:46.371Z,2.90
2023-04-28T08:52:34.273Z,3.20
2023-04-28T08:55:22.287Z,3.28
2023-04-28T08:58:10.230Z,3.20
2023-04-28T09:00:59.024Z,3.70
2023-04-28T09:03:47.788Z,3.55
2023-04-28T09:06:36.582Z,3.38
2023-04-28T09:09:25.062Z,3.75
2023-04-28T09:12:12.661Z,3.22
2023-04-28T09:15:05.993Z,3.33
2023-04-28T09:17:55.286Z,3.20
2023-04-28T09:20:42.949Z,3.72
2023-04-28T09:23:30.223Z,4.20
2023-04-28T09:26:19.117Z,3.75
2023-04-28T09:29:13.935Z,3.70
2023-04-28T09:32:15.183Z,3.38
2023-04-28T09:35:07.333Z,3.75
2023-04-28T09:38:00.380Z,4.05
2023-04-28T09:40:51.282Z,3.85
2023-04-28T09:43:38.687Z,3.63
2023-04-28T09:46:30.678Z,4.00
2023-04-28T09:49:18.402Z,3.80
2023-04-28T09:52:15.323Z,3.58
2023-04-28T09:55:03.616Z,4.10
2023-04-28T09:57:51.591Z,3.58
2023-04-28T10:00:40.774Z,3.65
2023-04-28T10:03:30.654Z,3.75
2023-04-28T10:06:18.517Z,3.65
2023-04-28T10:09:07.868Z,3.53
2023-04-28T10:11:55.640Z,3.58
2023-04-28T10:14:44.407Z,3.63
2023-04-28T10:17:32.975Z,4.10
2023-04-28T10:20:22.126Z,3.00
2023-04-28T10:23:18.964Z,3.35
2023-04-28T10:26:11.843Z,3.33
2023-04-28T10:28:59.278Z,4.13
2023-04-28T10:32:01.694Z,4.10
2023-04-28T10:34:49.359Z,3.28
2023-04-28T10:37:52.116Z,3.85
2023-04-28T10:40:39.924Z,4.07
2023-04-28T10:43:40.093Z,3.80
2023-04-28T10:46:27.825Z,4.10
2023-04-28T10:49:15.244Z,3.90
2023-04-28T10:52:02.656Z,3.67
2023-04-28T10:55:24.800Z,3.95
2023-04-28T10:58:31.486Z,3.78
2023-04-28T11:01:32.134Z,3.75
2023-04-28T11:04:19.947Z,3.58
2023-04-28T11:07:14.725Z,4.03
2023-04-28T11:10:01.953Z,4.40
2023-04-28T11:13:04.691Z,4.30
2023-04-28T11:16:04.268Z,3.88
2023-04-28T11:18:57.804Z,3.95
2023-04-28T11:21:45.189Z,4.30
2023-04-28T11:24:33.224Z,3.78
2023-04-28T11:27:25.393Z,4.15
2023-04-28T11:30:22.905Z,3.95
2023-04-28T11:33:10.989Z,4.55
2023-04-28T11:35:59.751Z,4.22
2023-04-28T11:38:49.028Z,3.67
2023-04-28T11:41:37.059Z,3.90
2023-04-28T11:44:25.685Z,3.95
2023-04-28T11:47:13.052Z,4.18
2023-04-28T11:50:01.250Z,5.00
2023-04-28T11:52:53.962Z,4.07
2023-04-28T11:55:41.334Z,3.35
2023-04-28T11:58:28.770Z,4.13
2023-04-28T12:01:16.356Z,4.50
2023-04-28T12:04:04.366Z,3.97
2023-04-28T12:07:00.082Z,4.10
2023-04-28T12:09:49.699Z,4.22
2023-04-28T12:15:41.997Z,3.95
2023-04-28T12:18:29.755Z,4.13
2023-04-28T12:21:22.314Z,4.13
2023-04-28T12:24:19.795Z,4.47
2023-04-28T12:27:18.363Z,4.63
2023-04-28T12:30:05.908Z,3.90
2023-04-28T12:32:53.541Z,4.70
2023-04-28T12:35:41.240Z,3.83
2023-04-28T12:38:29.138Z,3.88
2023-04-28T12:41:16.559Z,3.92
2023-04-28T12:44:05.547Z,3.80
2023-04-28T12:46:53.500Z,3.97
2023-04-28T12:49:41.562Z,4.35
2023-04-28T12:52:29.503Z,3.63
2023-04-28T12:55:17.268Z,3.67
2023-04-28T12:58:04.796Z,4.53
2023-04-28T13:00:53.924Z,4.38
2023-04-28T13:03:41.842Z,3.90
2023-04-28T13:06:29.452Z,3.60
2023-04-28T13:09:17.415Z,3.33
2023-04-28T13:12:05.281Z,3.20
2023-04-28T13:14:52.822Z,3.75
2023-04-28T13:17:41.556Z,3.45
2023-04-28T13:20:29.081Z,3.58
2023-04-28T13:23:16.538Z,3.28
2023-04-28T13:26:04.793Z,4.07
2023-04-28T13:28:52.243Z,3.80
2023-04-28T13:31:40.112Z,3.72
2023-04-28T13:34:29.341Z,3.90
2023-04-28T13:37:16.942Z,3.95
2023-04-28T13:40:06.151Z,3.60
2023-04-28T13:42:53.488Z,4.18
2023-04-28T13:45:41.121Z,4.10
2023-04-28T13:48:29.195Z,3.80
2023-04-28T13:51:17.930Z,3.75
2023-04-28T13:54:08.171Z,3.85
2023-04-28T13:56:55.571Z,3.72
2023-04-28T13:59:42.966Z,3.88
2023-04-28T14:02:30.365Z,4.28
2023-04-28T14:05:18.084Z,3.85
2023-04-28T14:08:07.022Z,3.70
2023-04-28T14:10:54.721Z,3.80
2023-04-28T14:13:42.594Z,3.75
2023-04-28T14:16:30.633Z,3.83
2023-04-28T14:19:18.521Z,3.70
2023-04-28T14:22:06.817Z,4.13
2023-04-28T14:24:55.462Z,3.58
2023-04-28T14:27:43.111Z,4.20
2023-04-28T14:30:30.932Z,3.95
2023-04-28T14:33:18.568Z,4.18
2023-04-28T14:36:06.218Z,3.78
2023-04-28T14:38:53.843Z,4.00
2023-04-28T14:41:42.681Z,3.53
2023-04-28T14:44:30.501Z,4.03
2023-04-28T14:47:17.843Z,4.03
2023-04-28T14:50:05.584Z,3.65
2023-04-28T14:52:52.991Z,4.10
2023-04-28T14:55:40.501Z,3.55
2023-04-28T14:58:29.231Z,3.47
2023-04-28T15:01:17.745Z,4.15
2023-04-28T15:04:05.533Z,3.70
2023-04-28T15:06:53.479Z,3.67
2023-04-28T15:09:40.796Z,3.92
2023-04-28T15:12:30.096Z,4.15
2023-04-28T15:15:18.749Z,3.97
2023-04-28T15:18:06.503Z,3.85
2023-04-28T15:20:53.882Z,3.75
2023-04-28T15:23:41.607Z,4.40
2023-04-28T15:26:30.130Z,5.53
2023-04-28T15:29:17.485Z,5.32
2023-04-28T15:32:06.792Z,4.88
2023-04-28T15:34:54.435Z,5.28
2023-04-28T15:37:43.017Z,5.07
2023-04-28T15:40:30.931Z,5.55
2023-04-28T15:43:18.378Z,6.00
2023-04-28T15:46:08.754Z,5.40
2023-04-28T15:48:57.968Z,4.90
2023-04-28T15:51:45.599Z,5.20
2023-04-28T15:54:33.232Z,4.85
2023-04-28T15:57:20.796Z,5.57
2023-04-28T16:00:08.971Z,5.28
2023-04-28T16:02:56.624Z,5.28
2023-04-28T16:05:45.777Z,5.00
2023-04-28T16:08:33.519Z,4.82
2023-04-28T16:11:21.321Z,5.20
2023-04-28T16:14:08.854Z,4.93
2023-04-28T16:16:56.761Z,5.28
2023-04-28T16:19:44.717Z,5.20
2023-04-28T16:22:33.466Z,5.13
2023-04-28T16:25:21.108Z,5.07
2023-04-28T16:28:08.530Z,5.38
2023-04-28T16:30:55.892Z,5.78
2023-04-28T16:33:43.277Z,5.32
2023-04-28T16:36:32.914Z,5.80
2023-04-28T16:39:23.193Z,5.50
2023-04-28T16:42:10.777Z,5.30
2023-04-28T16:44:59.737Z,5.50
2023-04-28T16:47:47.211Z,5.78
2023-04-28T16:50:34.852Z,5.88
2023-04-28T16:53:22.421Z,6.18
2023-04-28T16:56:11.322Z,5.82
2023-04-28T16:58:58.699Z,6.78
2023-04-28T17:01:46.285Z,5.97
2023-04-28T17:04:34.458Z,7.10
2023-04-28T17:07:24.187Z,6.63
2023-04-28T17:10:13.591Z,6.80
2023-04-28T17:13:02.555Z,6.43
2023-04-28T17:15:55.613Z,6.22
2023-04-28T17:18:43.398Z,6.78
2023-04-28T17:21:31.449Z,6.93
2023-04-28T17:24:18.853Z,6.95
2023-04-28T17:27:06.168Z,6.60
2023-04-28T17:29:54.915Z,6.13
2023-04-28T17:32:42.661Z,6.47
2023-04-28T17:35:30.001Z,7.00
2023-04-28T17:38:17.359Z,5.72
2023-04-28T17:41:05.072Z,5.82
2023-04-28T17:43:52.707Z,6.70
2023-04-28T17:46:41.817Z,6.80
2023-04-28T17:49:29.302Z,6.78
2023-04-28T17:52:16.944Z,6.05
2023-04-28T17:55:04.421Z,7.28
2023-04-28T17:57:52.371Z,6.82
2023-04-28T18:00:40.100Z,7.15
2023-04-28T18:03:29.166Z,6.57
2023-04-28T18:06:17.150Z,7.03
2023-04-28T18:09:04.426Z,7.18
2023-04-28T18:11:52.055Z,7.10
2023-04-28T18:14:41.070Z,7.00
2023-04-28T18:17:28.548Z,6.70
2023-04-28T18:20:17.510Z,5.95
2023-04-28T18:23:05.331Z,6.10
2023-04-28T18:25:52.861Z,6.22
2023-04-28T18:28:40.519Z,5.95
2023-04-28T18:31:28.229Z,6.40
2023-04-28T18:34:15.790Z,6.40
2023-04-28T18:37:04.508Z,6.55
2023-04-28T18:39:52.201Z,6.97
2023-04-28T18:42:39.571Z,7.38
2023-04-28T18:45:30.263Z,6.95
2023-04-28T18:48:18.300Z,7.50
2023-04-28T18:51:06.571Z,8.05
2023-04-28T18:53:55.828Z,7.38
2023-04-28T18:56:44.268Z,7.65
2023-04-28T18:59:31.845Z,7.07
2023-04-28T19:02:19.278Z,7.30
2023-04-28T19:05:07.551Z,6.97
2023-04-28T19:07:54.981Z,7.25
2023-04-28T19:10:43.614Z,7.57
2023-04-28T19:13:31.130Z,6.38
2023-04-28T19:16:19.335Z,5.93
2023-04-28T19:19:08.989Z,6.53
2023-04-28T19:21:57.643Z,5.93
2023-04-28T19:24:45.228Z,5.78
2023-04-28T19:27:35.007Z,5.70
2023-04-28T19:30:22.700Z,5.55
2023-04-28T19:33:10.137Z,5.45
2023-04-28T19:35:58.349Z,5.32
2023-04-28T19:38:46.544Z,6.03
2023-04-28T19:41:34.093Z,5.57
2023-04-28T19:44:23.136Z,5.93
2023-04-28T19:47:12.363Z,5.50
2023-04-28T19:50:00.115Z,5.47
2023-04-28T19:52:47.564Z,5.90
2023-04-28T19:55:36.424Z,5.88
2023-04-28T19:58:23.645Z,6.20
2023-04-28T20:01:12.525Z,6.85
2023-04-28T20:04:00.507Z,6.07
2023-04-28T20:06:48.825Z,6.65
2023-04-28T20:09:37.257Z,5.97
2023-04-28T20:12:25.284Z,6.10
2023-04-28T20:15:13.793Z,5.70
2023-04-28T20:18:02.524Z,6.43
2023-04-28T20:20:50.140Z,5.53
2023-04-28T20:23:37.775Z,6.20
2023-04-28T20:26:25.564Z,5.72
2023-04-28T20:29:12.985Z,5.70
2023-04-28T20:32:00.286Z,5.70
2023-04-28T20:34:49.260Z,6.03
2023-04-28T20:37:37.056Z,5.57
2023-04-28T20:40:24.464Z,5.40
2023-04-28T20:43:11.763Z,6.20
2023-04-28T20:45:59.545Z,6.45
2023-04-28T20:48:46.992Z,6.18
2023-04-28T20:51:37.323Z,5.32
2023-04-28T20:54:24.690Z,5.55
2023-04-28T20:57:12.217Z,5.30
2023-04-28T20:59:59.668Z,5.70
2023-04-28T21:02:47.159Z,5.60
2023-04-28T21:05:34.964Z,5.88
2023-04-28T21:08:23.691Z,5.30
2023-04-28T21:11:14.692Z,5.78
2023-04-28T21:14:02.386Z,5.75
2023-04-28T21:16:50.706Z,5.40
2023-04-28T21:19:38.219Z,6.30
2023-04-28T21:22:27.684Z,5.55
2023-04-28T21:25:16.603Z,5.75
2023-04-28T21:28:04.168Z,4.95
2023-04-28T21:30:53.288Z,5.07
2023-04-28T21:33:41.196Z,5.13
2023-04-28T21:36:28.703Z,5.03
2023-04-28T21:39:16.034Z,5.35
2023-04-28T21:42:05.746Z,5.40
2023-04-28T21:44:53.091Z,4.80
2023-04-28T21:47:43.327Z,5.40
2023-04-28T21:50:31.188Z,5.40
2023-04-28T21:53:18.612Z,5.65
2023-04-28T21:56:06.040Z,5.38
2023-04-28T21:58:55.663Z,4.68
2023-04-28T22:01:43.585Z,5.15
2023-04-28T22:04:31.532Z,4.53
2023-04-28T22:07:19.117Z,5.13
2023-04-28T22:10:07.804Z,4.65
2023-04-28T22:12:55.228Z,5.35
2023-04-28T22:15:44.611Z,4.95
2023-04-28T22:18:32.173Z,5.05
2023-04-28T22:21:20.101Z,4.85
2023-04-28T22:24:08.221Z,5.10
2023-04-28T22:26:56.198Z,5.13
2023-04-28T22:29:43.883Z,4.90
2023-04-28T22:32:33.009Z,5.22
2023-04-28T22:35:20.888Z,5.15
2023-04-28T22:38:08.328Z,5.20
2023-04-28T22:40:55.913Z,4.95
2023-04-28T22:43:43.254Z,4.93
2023-04-28T22:46:30.677Z,4.95
2023-04-28T22:49:24.557Z,4.50
2023-04-28T22:52:12.116Z,5.07
2023-04-28T22:54:59.480Z,4.93
2023-04-28T22:57:47.587Z,4.97
2023-04-28T23:00:35.710Z,4.88
2023-04-28T23:03:23.328Z,4.95
2023-04-28T23:06:12.329Z,4.90
2023-04-28T23:09:00.114Z,4.50
2023-04-28T23:11:47.813Z,4.57
2023-04-28T23:14:35.402Z,4.93
2023-04-28T23:17:22.841Z,4.60
2023-04-28T23:20:10.601Z,4.85
2023-04-28T23:22:59.400Z,4.30
2023-04-28T23:25:47.119Z,4.70
2023-04-28T23:28:34.468Z,4.57
2023-04-28T23:31:22.080Z,4.55
2023-04-28T23:34:09.444Z,4.55
2023-04-28T23:36:56.893Z,5.00
2023-04-28T23:39:45.692Z,5.00
2023-04-28T23:42:33.239Z,5.05
2023-04-28T23:45:20.684Z,4.68
2023-04-28T23:48:08.354Z,4.93
2023-04-28T23:50:56.447Z,4.85
2023-04-28T23:53:44.181Z,4.50
2023-04-28T23:56:33.014Z,4.57
2023-04-28T23:59:20.743Z,4.57
